Star Helena — V7KJ9 — position and weather

sailwx.info

Track history (hours):
 
Tides and Currents Weather Stations Pressure Air Temp Water Temp Dewpoint Dewpoint Depression Visibility Wind Speed Wind Dir Waves Ship Positions

Star Helena

Last reported at 2016-Sep-15 11:29 UTC. Time now 2016-Sep-29 15:21 UTC.
Position N 37°33' E 123°32'.
Warning: this ship's position is 14 days out of date.

Length 229 m; draft 6.8 m.

Type: Cargo ship. MMSI: 538002630.

Date/timePositionNaut miles runAvg speedWind from/ knotsBaromVisibWave heightAir tempDewpointWater temp
2016-Sep-15 11:29N 37°33' E 123°32'7410.6
2016-Sep-15 04:34N 38°05' E 122°08'1211.7
2016-Sep-15 03:34N 38°10' E 121°55'2311.4
2016-Sep-15 01:30N 38°20' E 121°27'3411.4
2016-Sep-14 22:33N 38°35' E 120°49'1212.3
2016-Sep-14 21:33N 38°36' E 120°33'  
2016-Sep-11 12:20N 38°39' E 120°46'8 9.6
2016-Sep-11 11:33N 38°36' E 120°56'1211.2
2016-Sep-11 10:28N 38°30' E 121°09'56 6.3
2016-Sep-11 01:32N 38°09' E 122°15'50 9.9
2016-Sep-10 20:31N 37°46' E 123°11'40 9.6
2016-Sep-10 16:23N 37°09' E 123°32'3411.0
2016-Sep-10 13:19N 36°36' E 123°35'  
Track history (hours):
 
Tides and Currents Weather Stations Pressure Air Temp Water Temp Dewpoint Dewpoint Depression Visibility Wind Speed Wind Dir Waves Ship Positions

Star Helena

Last reported at 2016-Sep-15 11:29 UTC. Time now 2016-Sep-29 15:21 UTC.
Position N 37°33' E 123°32'.
Warning: this ship's position is 14 days out of date.

Length 229 m; draft 6.8 m.

Type: Cargo ship. MMSI: 538002630.

Date/timePositionNaut miles runAvg speedWind from/ knotsBaromVisibWave heightAir tempDewpointWater temp
2016-Sep-15 11:29N 37°33' E 123°32'7410.6
2016-Sep-15 04:34N 38°05' E 122°08'1211.7
2016-Sep-15 03:34N 38°10' E 121°55'2311.4
2016-Sep-15 01:30N 38°20' E 121°27'3411.4
2016-Sep-14 22:33N 38°35' E 120°49'1212.3
2016-Sep-14 21:33N 38°36' E 120°33'  
2016-Sep-11 12:20N 38°39' E 120°46'8 9.6
2016-Sep-11 11:33N 38°36' E 120°56'1211.2
2016-Sep-11 10:28N 38°30' E 121°09'56 6.3
2016-Sep-11 01:32N 38°09' E 122°15'50 9.9
2016-Sep-10 20:31N 37°46' E 123°11'40 9.6
2016-Sep-10 16:23N 37°09' E 123°32'3411.0
2016-Sep-10 13:19N 36°36' E 123°35'  

Dump ship's entire track history